Time;durP1;ratioP1;P1;durP2;ratioP2;P2;SDS_P1;SDS_P2;PMS_P1;PMS_P2;Temp;Humidity;BMP_temperature;BMP_pressure;BME280_temperature;BME280_humidity;BME280_pressure;Samples;Min_cycle;Max_cycle;Signal;HPM_P1;HPM_P2
2022/07/07 00:01:33;;;;;;;4.42;4.12;;;;;;;18.89;100.00;99509.42;1711299;83;21083;-78
2022/07/07 00:04:02;;;;;;;4.53;3.83;;;;;;;18.83;100.00;99507.92;1708610;82;21150;-79
2022/07/07 00:06:29;;;;;;;4.00;3.70;;;;;;;18.83;100.00;99511.20;1675734;85;20936;-78
2022/07/07 00:08:56;;;;;;;7.58;3.00;;;;;;;18.80;99.89;99500.93;1696383;84;21056;-85
2022/07/07 00:11:24;;;;;;;3.83;3.52;;;;;;;18.76;99.52;99499.36;1710645;83;21051;-80
2022/07/07 00:13:51;;;;;;;4.40;3.77;;;;;;;18.71;99.28;99515.82;1710624;83;21015;-79
2022/07/07 00:16:18;;;;;;;3.98;3.15;;;;;;;18.64;98.79;99512.73;1710944;83;21137;-77
2022/07/07 00:18:46;;;;;;;3.65;3.35;;;;;;;18.56;98.65;99507.44;1710280;82;21072;-84
2022/07/07 00:21:12;;;;;;;3.40;3.15;;;;;;;18.51;98.82;99504.80;1695844;84;21098;-86
2022/07/07 00:23:39;;;;;;;2.98;2.65;;;;;;;18.46;98.81;99504.94;1710709;83;21031;-84
2022/07/07 00:26:06;;;;;;;2.77;2.58;;;;;;;18.44;98.65;99519.95;1693166;83;21012;-90
2022/07/07 00:28:34;;;;;;;3.37;2.62;;;;;;;18.37;98.54;99520.36;1694463;83;21659;-82
2022/07/07 00:31:02;;;;;;;3.52;2.65;;;;;;;18.34;98.75;99524.25;1707870;83;21505;-78
2022/07/07 00:33:28;;;;;;;4.45;3.62;;;;;;;18.30;98.60;99522.15;1704030;82;21020;-78
2022/07/07 00:35:55;;;;;;;4.10;3.00;;;;;;;18.25;98.26;99514.64;1686756;84;20994;-81
2022/07/07 00:38:22;;;;;;;4.05;2.70;;;;;;;18.21;98.19;99522.62;1687056;84;20982;-83
2022/07/07 00:40:51;;;;;;;4.47;3.30;;;;;;;18.17;98.09;99516.17;1694785;82;22767;-83
2022/07/07 00:43:17;;;;;;;7.78;3.37;;;;;;;18.13;98.38;99508.34;1688377;84;21008;-82
2022/07/07 00:45:51;;;;;;;5.00;4.55;;;;;;;18.09;98.77;99526.94;1715076;82;20961;-79
2022/07/07 00:48:19;;;;;;;3.92;3.62;;;;;;;18.04;99.36;99509.35;1697640;82;21061;-88
2022/07/07 00:50:46;;;;;;;3.40;3.20;;;;;;;18.01;99.67;99508.61;1687763;84;21546;-83
2022/07/07 00:53:14;;;;;;;3.70;3.40;;;;;;;17.99;100.00;99505.37;1691140;82;21566;-82
2022/07/07 00:55:40;;;;;;;3.70;3.40;;;;;;;17.97;100.00;99506.24;1627817;85;20940;-81
2022/07/07 00:58:07;;;;;;;4.25;3.95;;;;;;;17.96;100.00;99507.34;1687994;85;21394;-81
2022/07/07 01:00:33;;;;;;;6.47;3.67;;;;;;;17.94;100.00;99515.02;1689464;84;21018;-79
2022/07/07 01:03:01;;;;;;;4.67;3.47;;;;;;;17.93;100.00;99506.60;1717955;82;21073;-80
2022/07/07 01:05:28;;;;;;;3.17;2.98;;;;;;;17.89;100.00;99499.58;1675540;85;21112;-79
2022/07/07 01:07:55;;;;;;;4.70;3.70;;;;;;;17.87;100.00;99496.38;1683159;84;21031;-81
2022/07/07 01:10:22;;;;;;;3.83;3.47;;;;;;;17.81;100.00;99501.10;1702829;83;21509;-82
2022/07/07 01:12:48;;;;;;;3.75;3.45;;;;;;;17.77;100.00;99500.64;1687207;85;21013;-82
2022/07/07 01:15:16;;;;;;;3.15;2.95;;;;;;;17.74;100.00;99511.59;1662499;84;21022;-81
2022/07/07 01:17:43;;;;;;;3.40;2.75;;;;;;;17.71;100.00;99516.25;1662311;85;21651;-81
2022/07/07 01:20:10;;;;;;;3.37;3.17;;;;;;;17.65;100.00;99509.29;1687271;84;20985;-81
2022/07/07 01:22:38;;;;;;;4.28;2.80;;;;;;;17.64;100.00;99525.93;1703471;83;21276;-81
2022/07/07 01:25:05;;;;;;;4.45;2.92;;;;;;;17.62;100.00;99511.81;1687849;84;21005;-82
2022/07/07 01:27:33;;;;;;;2.75;2.55;;;;;;;17.63;100.00;99517.51;1707743;83;21005;-79
2022/07/07 01:29:59;;;;;;;3.52;1.98;;;;;;;17.58;99.11;99523.81;1717693;82;20992;-83
2022/07/07 01:32:27;;;;;;;6.55;2.30;;;;;;;17.55;98.72;99529.06;1696505;82;21581;-80
2022/07/07 01:34:54;;;;;;;6.60;2.10;;;;;;;17.50;98.47;99525.88;1687545;84;21101;-82
2022/07/07 01:37:24;;;;;;;1.92;1.82;;;;;;;17.48;98.37;99525.91;1686392;84;21052;-83
2022/07/07 01:39:50;;;;;;;2.12;1.98;;;;;;;17.48;98.22;99535.42;1688848;84;21029;-81
2022/07/07 01:42:16;;;;;;;2.05;1.95;;;;;;;17.46;98.04;99528.92;1692204;83;21099;-83
2022/07/07 01:44:44;;;;;;;5.67;2.15;;;;;;;17.43;97.86;99531.70;1688169;84;20991;-89
2022/07/07 01:47:12;;;;;;;2.58;1.90;;;;;;;17.40;97.91;99539.10;1689236;85;20998;-89
2022/07/07 01:49:38;;;;;;;2.22;1.87;;;;;;;17.37;98.06;99541.03;1688561;84;21022;-90
2022/07/07 01:52:06;;;;;;;3.83;1.82;;;;;;;17.33;98.28;99541.38;1667093;84;21071;-87
2022/07/07 01:54:33;;;;;;;3.62;2.50;;;;;;;17.33;98.54;99550.90;1664890;85;21525;-87
2022/07/07 01:57:00;;;;;;;4.08;1.92;;;;;;;17.32;98.65;99556.08;1665797;85;21555;-86
2022/07/07 01:59:28;;;;;;;2.85;2.65;;;;;;;17.32;98.46;99556.63;1689531;85;21016;-89
2022/07/07 02:01:55;;;;;;;2.90;1.95;;;;;;;17.28;98.28;99561.86;1683041;84;21041;-90
2022/07/07 02:04:21;;;;;;;2.15;1.95;;;;;;;17.26;98.10;99564.63;1688927;85;21045;-85
2022/07/07 02:06:49;;;;;;;2.17;1.98;;;;;;;17.24;98.16;99570.34;1673111;85;21216;-86
2022/07/07 02:09:17;;;;;;;2.45;2.25;;;;;;;17.22;98.06;99572.55;1660459;85;21000;-86
2022/07/07 02:11:46;;;;;;;2.40;2.20;;;;;;;17.21;97.88;99580.47;1664852;84;21004;-90
2022/07/07 02:14:12;;;;;;;2.77;2.58;;;;;;;17.20;97.79;99588.36;1673487;84;21085;-83
2022/07/07 02:16:39;;;;;;;2.52;2.10;;;;;;;17.20;97.75;99582.11;1690571;83;21020;-89
2022/07/07 02:19:06;;;;;;;1.90;1.62;;;;;;;17.19;97.59;99584.56;1688920;84;22177;-90
2022/07/07 02:21:34;;;;;;;2.80;2.58;;;;;;;17.17;97.36;99588.93;1687819;84;21688;-87
2022/07/07 02:24:01;;;;;;;2.65;2.00;;;;;;;17.19;97.30;99580.49;1690077;84;21037;-86
2022/07/07 02:26:29;;;;;;;1.50;1.40;;;;;;;17.19;97.03;99579.94;1688286;84;21009;-86
2022/07/07 02:28:56;;;;;;;2.65;1.57;;;;;;;17.19;96.73;99584.56;1689899;84;21041;-90
2022/07/07 02:31:23;;;;;;;2.37;1.55;;;;;;;17.13;96.38;99587.91;1692829;84;21057;-89
2022/07/07 02:33:50;;;;;;;1.62;1.52;;;;;;;17.06;96.60;99572.55;1707290;83;20992;-85
2022/07/07 02:36:16;;;;;;;4.12;1.67;;;;;;;17.03;96.86;99573.66;1704967;83;21091;-84
2022/07/07 02:38:43;;;;;;;1.42;1.20;;;;;;;17.02;97.22;99575.60;1696413;84;21080;-83
2022/07/07 02:41:10;;;;;;;1.30;1.20;;;;;;;17.00;97.23;99576.44;1705588;84;21040;-85
2022/07/07 02:43:37;;;;;;;1.65;1.32;;;;;;;17.00;97.34;99578.61;1705231;83;21152;-85
2022/07/07 02:46:03;;;;;;;2.98;1.60;;;;;;;17.05;97.20;99595.38;1705660;84;21029;-91
2022/07/07 02:48:32;;;;;;;2.50;1.52;;;;;;;16.97;96.05;99590.62;1705717;83;21049;-83
2022/07/07 02:51:00;;;;;;;6.83;1.20;;;;;;;16.95;96.11;99599.05;1705035;83;21064;-86
2022/07/07 02:53:27;;;;;;;1.15;1.12;;;;;;;16.96;96.21;99598.51;1689326;84;21017;-83
2022/07/07 02:55:56;;;;;;;1.57;1.10;;;;;;;16.98;96.04;99604.44;1710893;83;21168;-85
2022/07/07 02:58:25;;;;;;;1.50;1.40;;;;;;;17.01;95.96;99607.95;1710260;82;20992;-89
2022/07/07 03:00:54;;;;;;;1.20;1.10;;;;;;;17.00;95.46;99612.57;1696174;84;21491;-91
2022/07/07 03:03:21;;;;;;;3.35;1.02;;;;;;;17.03;95.34;99608.44;1695920;84;21146;-89
2022/07/07 03:05:49;;;;;;;1.07;1.07;;;;;;;17.05;95.13;99606.25;1694754;84;21096;-91
2022/07/07 03:08:18;;;;;;;1.30;1.20;;;;;;;17.06;94.52;99605.70;1707192;83;21056;-84
2022/07/07 03:10:48;;;;;;;2.00;1.15;;;;;;;17.04;94.06;99614.69;1727987;82;21505;-82
2022/07/07 03:13:15;;;;;;;0.98;0.98;;;;;;;16.95;93.58;99595.53;1718825;83;21014;-82
2022/07/07 03:15:42;;;;;;;3.58;1.10;;;;;;;16.91;93.63;99610.80;1710489;83;20999;-83
2022/07/07 03:18:08;;;;;;;1.55;0.98;;;;;;;16.84;93.31;99610.34;1710812;83;21040;-83
2022/07/07 03:20:36;;;;;;;3.52;1.20;;;;;;;16.82;93.39;99603.05;1710510;82;21059;-84
2022/07/07 03:23:04;;;;;;;1.67;1.57;;;;;;;16.82;93.65;99601.70;1710705;83;20920;-81
2022/07/07 03:25:32;;;;;;;1.10;1.10;;;;;;;16.82;93.73;99613.92;1710353;83;20908;-82
2022/07/07 03:27:59;;;;;;;1.30;1.20;;;;;;;16.80;93.72;99606.60;1692197;84;21052;-85
2022/07/07 03:30:27;;;;;;;3.42;1.20;;;;;;;16.75;93.73;99612.91;1728371;82;21017;-83
2022/07/07 03:32:54;;;;;;;1.47;1.37;;;;;;;16.73;93.80;99602.91;1730247;82;21074;-83
2022/07/07 03:35:20;;;;;;;1.40;1.30;;;;;;;16.72;94.13;99606.72;1716211;83;20948;-82
2022/07/07 03:37:47;;;;;;;6.28;1.62;;;;;;;16.71;94.30;99616.51;1711036;83;21555;-88
2022/07/07 03:40:14;;;;;;;1.90;1.30;;;;;;;16.67;94.10;99624.44;1711701;83;21090;-83
2022/07/07 03:42:41;;;;;;;1.47;1.37;;;;;;;16.65;93.96;99619.84;1709368;83;20988;-84
2022/07/07 03:45:09;;;;;;;4.65;1.90;;;;;;;16.63;94.24;99620.70;1700552;84;21489;-84
2022/07/07 03:47:36;;;;;;;1.50;1.40;;;;;;;16.63;94.26;99614.45;1712816;83;20933;-84
2022/07/07 03:50:04;;;;;;;4.55;1.57;;;;;;;16.62;94.32;99608.20;1695967;84;21665;-87
2022/07/07 03:52:31;;;;;;;1.25;1.20;;;;;;;16.59;94.50;99602.02;1680746;85;20991;-86
2022/07/07 03:54:58;;;;;;;1.10;1.10;;;;;;;16.60;94.76;99596.00;1680626;85;21103;-85
2022/07/07 03:57:24;;;;;;;2.55;1.50;;;;;;;16.61;94.97;99600.34;1680546;85;21079;-84
2022/07/07 03:59:52;;;;;;;2.50;1.22;;;;;;;16.62;94.97;99592.46;1692997;84;21561;-85
2022/07/07 04:02:20;;;;;;;5.28;2.58;;;;;;;16.65;95.10;99599.47;1713873;83;20937;-86
2022/07/07 04:04:46;;;;;;;1.42;1.32;;;;;;;16.68;95.01;99601.62;1726540;82;21049;-84
2022/07/07 04:07:13;;;;;;;1.70;1.60;;;;;;;16.69;94.90;99599.72;1706973;82;21086;-84
2022/07/07 04:09:41;;;;;;;2.55;1.52;;;;;;;16.71;94.86;99614.60;1705574;83;21145;-85
2022/07/07 04:12:08;;;;;;;3.33;2.33;;;;;;;16.68;94.68;99611.13;1688143;84;21551;-83
2022/07/07 04:14:37;;;;;;;1.20;1.20;;;;;;;16.68;94.79;99622.53;1710626;83;21019;-87
2022/07/07 04:17:04;;;;;;;1.37;1.27;;;;;;;16.69;95.00;99629.59;1710770;83;21007;-85
2022/07/07 04:19:31;;;;;;;1.57;1.40;;;;;;;16.71;95.03;99639.05;1710709;82;21040;-87
2022/07/07 04:22:00;;;;;;;7.78;1.70;;;;;;;16.72;94.81;99651.53;1689511;84;21111;-85
2022/07/07 04:24:27;;;;;;;2.25;1.55;;;;;;;16.73;94.56;99650.98;1698895;83;21067;-84
2022/07/07 04:26:56;;;;;;;2.90;1.62;;;;;;;16.71;94.37;99646.38;1707289;83;20941;-84
2022/07/07 04:29:24;;;;;;;4.45;1.70;;;;;;;16.74;94.55;99647.17;1714720;83;20991;-83
2022/07/07 04:31:53;;;;;;;2.30;2.20;;;;;;;16.78;94.51;99653.64;1694742;84;21471;-85
2022/07/07 04:34:22;;;;;;;2.92;2.30;;;;;;;16.82;94.32;99647.33;1686654;84;21093;-87
2022/07/07 04:36:49;;;;;;;3.40;2.30;;;;;;;16.86;94.06;99655.70;1687168;85;21069;-85
2022/07/07 04:39:17;;;;;;;2.85;2.65;;;;;;;16.87;93.73;99656.77;1686677;84;20995;-84
2022/07/07 04:41:43;;;;;;;2.30;2.10;;;;;;;16.85;93.57;99649.45;1718351;82;21510;-84
2022/07/07 04:44:09;;;;;;;2.17;2.08;;;;;;;16.86;93.76;99657.87;1707674;82;21521;-87
2022/07/07 04:46:36;;;;;;;3.70;2.52;;;;;;;16.90;93.84;99656.73;1687223;84;21095;-88
2022/07/07 04:49:05;;;;;;;3.05;2.02;;;;;;;16.94;93.80;99666.72;1689212;84;21017;-87
2022/07/07 04:51:32;;;;;;;2.98;2.70;;;;;;;16.97;93.43;99665.34;1707245;83;20980;-87
2022/07/07 04:53:59;;;;;;;5.83;3.05;;;;;;;16.99;93.10;99665.84;1720411;83;21057;-88
2022/07/07 04:56:26;;;;;;;3.80;2.50;;;;;;;16.99;92.74;99658.50;1720304;83;21045;-86
2022/07/07 04:58:53;;;;;;;3.47;2.42;;;;;;;16.99;92.67;99662.58;1707291;83;21535;-87
2022/07/07 05:01:20;;;;;;;2.67;2.35;;;;;;;16.97;92.28;99661.27;1708137;82;21023;-86
2022/07/07 05:03:49;;;;;;;2.72;2.52;;;;;;;16.96;92.28;99652.84;1704365;82;21004;-88
2022/07/07 05:06:15;;;;;;;2.62;2.42;;;;;;;16.98;92.42;99660.95;1702709;82;21342;-85
2022/07/07 05:08:42;;;;;;;2.72;2.52;;;;;;;17.02;92.15;99669.34;1702260;84;20976;-83
2022/07/07 05:11:10;;;;;;;3.00;2.80;;;;;;;17.02;91.97;99669.89;1683077;85;21306;-85
2022/07/07 05:13:38;;;;;;;4.65;3.15;;;;;;;17.06;91.92;99666.30;1703630;82;21541;-85
2022/07/07 05:16:08;;;;;;;3.37;2.37;;;;;;;17.11;91.89;99665.42;1688307;84;20998;-85
2022/07/07 05:18:37;;;;;;;2.20;2.00;;;;;;;17.14;91.50;99669.70;1703809;82;21010;-84
2022/07/07 05:21:04;;;;;;;3.17;1.95;;;;;;;17.15;91.35;99667.25;1688581;84;21629;-84
2022/07/07 05:23:30;;;;;;;3.33;3.08;;;;;;;17.16;91.16;99668.88;1674952;85;21159;-86
2022/07/07 05:25:57;;;;;;;3.15;1.82;;;;;;;17.22;91.18;99673.66;1688303;84;20985;-83
2022/07/07 05:28:24;;;;;;;4.83;2.10;;;;;;;17.20;90.75;99672.62;1687843;84;21033;-86
2022/07/07 05:30:51;;;;;;;2.15;1.95;;;;;;;17.18;90.64;99682.16;1704150;82;21012;-85
2022/07/07 05:33:18;;;;;;;1.75;1.65;;;;;;;17.14;90.83;99682.48;1707798;83;20988;-84
2022/07/07 05:35:47;;;;;;;1.52;1.42;;;;;;;17.11;90.78;99698.84;1712009;82;21022;-85
2022/07/07 05:38:17;;;;;;;1.65;1.55;;;;;;;17.12;90.71;99689.56;1710859;83;20959;-81
2022/07/07 05:40:44;;;;;;;1.70;1.60;;;;;;;17.11;90.60;99692.05;1683697;84;21148;-80
2022/07/07 05:43:11;;;;;;;1.50;1.40;;;;;;;17.11;90.65;99687.16;1710651;82;20993;-81
2022/07/07 05:45:37;;;;;;;1.87;1.62;;;;;;;17.15;90.71;99699.87;1710356;83;21082;-81
2022/07/07 05:48:06;;;;;;;2.08;1.87;;;;;;;17.15;90.31;99688.19;1692456;84;20994;-81
2022/07/07 05:50:33;;;;;;;1.60;1.50;;;;;;;17.16;90.55;99683.02;1685163;84;20992;-83
2022/07/07 05:53:01;;;;;;;2.12;1.45;;;;;;;17.18;90.66;99681.61;1693574;82;21000;-81
2022/07/07 05:55:28;;;;;;;3.33;1.52;;;;;;;17.21;90.36;99683.76;1706212;83;21028;-81
2022/07/07 05:57:55;;;;;;;1.77;1.20;;;;;;;17.25;90.31;99701.64;1694589;83;21028;-81
2022/07/07 06:00:23;;;;;;;2.92;1.65;;;;;;;17.28;89.77;99682.83;1724720;82;21067;-82
2022/07/07 06:02:50;;;;;;;1.57;1.47;;;;;;;17.33;89.62;99688.73;1737619;82;21088;-82
2022/07/07 06:05:17;;;;;;;1.40;1.30;;;;;;;17.34;89.13;99689.00;1711239;82;21179;-82
2022/07/07 06:07:44;;;;;;;1.42;1.37;;;;;;;17.36;89.16;99690.89;1697882;84;21120;-84
2022/07/07 06:10:11;;;;;;;2.60;1.40;;;;;;;17.40;89.17;99690.00;1708628;82;21564;-82
2022/07/07 06:12:38;;;;;;;1.32;1.20;;;;;;;17.44;88.80;99697.01;1697533;84;21108;-79
2022/07/07 06:15:06;;;;;;;1.80;1.62;;;;;;;17.50;88.91;99698.56;1697555;84;20953;-81
2022/07/07 06:17:33;;;;;;;1.57;1.47;;;;;;;17.60;88.48;99700.34;1694562;82;20993;-78
2022/07/07 06:20:00;;;;;;;1.52;1.42;;;;;;;17.68;87.68;99713.27;1708566;83;21533;-85
2022/07/07 06:22:26;;;;;;;3.00;1.60;;;;;;;17.67;87.17;99717.89;1709187;83;20993;-85
2022/07/07 06:24:55;;;;;;;2.10;1.50;;;;;;;17.66;87.20;99707.30;1709068;83;21026;-81
2022/07/07 06:27:22;;;;;;;1.50;1.40;;;;;;;17.68;86.67;99707.83;1710855;83;20979;-85
2022/07/07 06:29:49;;;;;;;1.60;1.50;;;;;;;17.69;86.86;99723.05;1710779;83;21011;-84
2022/07/07 06:32:17;;;;;;;1.15;1.15;;;;;;;17.75;86.39;99729.45;1710879;83;21079;-86
2022/07/07 06:34:45;;;;;;;1.50;1.35;;;;;;;17.79;86.18;99738.64;1697515;84;21072;-86
2022/07/07 06:37:12;;;;;;;1.90;1.80;;;;;;;17.83;85.90;99741.05;1710482;82;21049;-87
2022/07/07 06:39:40;;;;;;;1.72;1.60;;;;;;;17.88;85.73;99745.60;1697002;84;21005;-88
2022/07/07 06:42:07;;;;;;;1.62;1.52;;;;;;;17.90;85.78;99746.09;1697146;84;21547;-91
2022/07/07 06:44:39;;;;;;;2.17;1.40;;;;;;;17.95;85.63;99746.02;1711123;83;21031;-89
2022/07/07 06:47:06;;;;;;;1.75;1.37;;;;;;;18.01;85.44;99744.02;1711253;83;21090;-89
2022/07/07 06:49:34;;;;;;;2.55;1.37;;;;;;;18.05;84.57;99745.04;1671445;84;21709;-86
2022/07/07 06:52:00;;;;;;;1.30;1.20;;;;;;;18.07;84.50;99753.73;1699713;82;21003;-87
2022/07/07 06:54:27;;;;;;;2.22;1.20;;;;;;;18.07;84.40;99745.02;1697506;84;21024;-84
2022/07/07 06:56:54;;;;;;;1.12;1.12;;;;;;;18.06;84.45;99747.48;1706571;84;21032;-82
2022/07/07 06:59:21;;;;;;;1.98;1.37;;;;;;;18.05;84.50;99747.21;1707168;83;21497;-88
2022/07/07 07:01:48;;;;;;;2.70;1.30;;;;;;;18.10;84.53;99747.68;1706430;83;21126;-87
2022/07/07 07:04:15;;;;;;;3.27;1.47;;;;;;;18.07;83.83;99751.82;1728526;83;20972;-86
2022/07/07 07:06:42;;;;;;;4.33;1.40;;;;;;;18.08;83.74;99750.69;1707954;83;21519;-85
2022/07/07 07:09:10;;;;;;;1.62;1.35;;;;;;;17.98;82.66;99757.69;1727872;82;20956;-84
2022/07/07 07:11:37;;;;;;;1.52;1.42;;;;;;;17.95;83.13;99751.45;1713064;83;21551;-84
2022/07/07 07:14:03;;;;;;;1.60;1.50;;;;;;;17.96;83.38;99744.91;1711344;83;21483;-85
2022/07/07 07:16:30;;;;;;;2.20;1.85;;;;;;;17.96;83.15;99749.00;1711222;83;20996;-89
2022/07/07 07:18:57;;;;;;;3.40;1.50;;;;;;;18.00;83.32;99747.30;1711829;83;21044;-88
2022/07/07 07:21:23;;;;;;;1.25;1.15;;;;;;;18.07;83.37;99745.02;1698363;84;21064;-89
2022/07/07 07:23:50;;;;;;;1.67;1.45;;;;;;;18.15;83.09;99747.59;1707757;83;21054;-87
2022/07/07 07:26:17;;;;;;;1.47;1.37;;;;;;;18.18;82.60;99751.88;1677474;85;21112;-86
2022/07/07 07:28:44;;;;;;;2.10;1.57;;;;;;;18.25;82.50;99755.59;1683638;84;20961;-82
2022/07/07 07:31:10;;;;;;;4.42;1.50;;;;;;;18.30;82.30;99749.52;1697660;84;21546;-86
2022/07/07 07:33:39;;;;;;;3.33;1.40;;;;;;;18.42;81.91;99750.92;1706866;84;21024;-81
2022/07/07 07:36:09;;;;;;;1.72;1.22;;;;;;;18.51;81.14;99757.33;1664813;85;20984;-80
2022/07/07 07:38:39;;;;;;;4.12;1.07;;;;;;;18.53;80.33;99759.17;1697548;84;21604;-82
2022/07/07 07:41:08;;;;;;;3.72;1.45;;;;;;;18.44;80.07;99774.05;1705149;82;21526;-82
2022/07/07 07:43:36;;;;;;;1.32;1.15;;;;;;;18.44;80.41;99765.06;1710696;83;21070;-84
2022/07/07 07:46:04;;;;;;;1.30;1.12;;;;;;;18.48;80.52;99761.98;1710648;83;21078;-82
2022/07/07 07:48:31;;;;;;;3.95;1.25;;;;;;;18.53;80.35;99767.34;1710325;82;22963;-82
2022/07/07 07:50:58;;;;;;;1.30;1.27;;;;;;;18.63;80.48;99771.28;1708533;83;22141;-82
2022/07/07 07:53:24;;;;;;;2.35;1.32;;;;;;;18.74;79.75;99783.62;1708425;82;21094;-79
2022/07/07 07:55:53;;;;;;;5.78;1.40;;;;;;;18.76;79.11;99777.84;1684108;84;21541;-81
2022/07/07 07:58:22;;;;;;;2.22;1.70;;;;;;;18.76;79.01;99772.39;1714810;83;21525;-85
2022/07/07 08:00:48;;;;;;;2.45;1.25;;;;;;;18.76;79.30;99775.93;1717502;83;21072;-83
2022/07/07 08:03:15;;;;;;;3.22;1.67;;;;;;;18.81;79.30;99777.20;1711007;82;21151;-81
2022/07/07 08:05:43;;;;;;;1.15;1.05;;;;;;;18.90;79.12;99778.11;1707617;83;21539;-77
2022/07/07 08:08:11;;;;;;;5.12;1.65;;;;;;;18.94;78.75;99776.42;1715787;82;20981;-83
2022/07/07 08:10:38;;;;;;;2.00;1.67;;;;;;;18.99;78.59;99773.56;1711072;83;21035;-90
2022/07/07 08:13:05;;;;;;;1.62;1.52;;;;;;;19.05;78.48;99776.45;1711580;83;21079;-90
2022/07/07 08:15:32;;;;;;;1.00;1.00;;;;;;;19.13;78.30;99779.03;1711739;82;21646;-86
2022/07/07 08:18:00;;;;;;;2.02;1.50;;;;;;;19.21;78.25;99777.50;1695827;83;21101;-81
2022/07/07 08:20:29;;;;;;;3.22;1.80;;;;;;;19.30;77.98;99780.57;1710282;83;21020;-80
2022/07/07 08:22:57;;;;;;;2.33;1.40;;;;;;;19.34;77.47;99784.30;1695645;83;20993;-82
2022/07/07 08:25:24;;;;;;;4.53;1.22;;;;;;;19.36;77.17;99777.99;1709332;82;21082;-81
2022/07/07 08:27:51;;;;;;;3.30;1.57;;;;;;;19.43;76.95;99776.20;1693940;82;21125;-80
2022/07/07 08:30:17;;;;;;;3.62;1.30;;;;;;;19.50;76.65;99782.90;1708778;83;20987;-81
2022/07/07 08:32:45;;;;;;;1.17;1.07;;;;;;;19.53;75.86;99783.64;1709185;82;21620;-79
2022/07/07 08:35:14;;;;;;;1.95;1.25;;;;;;;19.58;74.94;99775.34;1696173;84;21015;-78
2022/07/07 08:37:41;;;;;;;2.90;1.22;;;;;;;19.56;74.24;99777.59;1696477;84;21585;-75
2022/07/07 08:40:14;;;;;;;1.57;1.47;;;;;;;19.53;74.40;99790.45;1681656;85;21532;-78
2022/07/07 08:42:41;;;;;;;2.77;1.55;;;;;;;19.56;74.57;99787.69;1669200;86;21032;-77
2022/07/07 08:45:11;;;;;;;6.35;1.67;;;;;;;19.55;74.65;99786.07;1688273;83;21023;-79
2022/07/07 08:47:39;;;;;;;1.35;1.25;;;;;;;19.59;75.09;99780.25;1698562;84;21020;-78
2022/07/07 08:50:09;;;;;;;1.45;1.35;;;;;;;19.69;74.54;99785.48;1702926;83;20976;-75
2022/07/07 08:52:38;;;;;;;1.45;1.20;;;;;;;19.77;72.95;99804.39;1667030;83;21606;-77
2022/07/07 08:55:06;;;;;;;1.10;1.05;;;;;;;19.79;72.57;99793.98;1658785;84;21001;-79
2022/07/07 08:57:35;;;;;;;2.15;1.20;;;;;;;19.85;71.97;99794.94;1681838;84;21045;-77
2022/07/07 09:00:04;;;;;;;1.22;1.10;;;;;;;19.83;72.29;99790.34;1696896;82;21102;-78
2022/07/07 09:02:34;;;;;;;1.10;1.10;;;;;;;19.89;72.54;99792.39;1710615;82;21032;-79
2022/07/07 09:05:02;;;;;;;6.12;1.40;;;;;;;19.98;72.29;99797.36;1697236;84;22711;-79
2022/07/07 09:07:52;;;;;;;1.07;1.05;;;;;;;20.08;72.35;99807.23;1710824;82;21481;-79
2022/07/07 09:10:33;;;;;;;1.37;1.27;;;;;;;20.15;71.66;99807.04;1697155;84;21170;-79
2022/07/07 09:13:00;;;;;;;1.42;1.32;;;;;;;20.24;71.47;99803.03;1678704;83;20957;-76
2022/07/07 09:15:33;;;;;;;2.98;1.67;;;;;;;20.16;70.97;99797.73;1704342;84;21008;-77
2022/07/07 09:18:01;;;;;;;3.12;1.72;;;;;;;20.19;71.32;99803.16;1687231;83;21110;-80
2022/07/07 09:20:34;;;;;;;1.22;1.10;;;;;;;20.27;71.21;99807.30;1678987;85;21008;-80
2022/07/07 09:23:02;;;;;;;3.72;2.12;;;;;;;20.37;70.40;99805.72;1685426;84;20992;-76
2022/07/07 09:25:29;;;;;;;1.55;1.15;;;;;;;20.41;70.43;99816.83;1701613;82;21037;-81
2022/07/07 09:28:03;;;;;;;1.10;1.10;;;;;;;20.47;69.66;99816.95;1697270;83;21564;-78
2022/07/07 09:30:38;;;;;;;1.70;1.60;;;;;;;20.48;68.61;99815.81;1710045;82;21075;-80
2022/07/07 09:33:14;;;;;;;3.08;1.17;;;;;;;20.50;69.00;99818.23;1710368;83;20947;-80
2022/07/07 09:38:32;;;;;;;1.57;1.40;;;;;;;20.64;67.32;99822.51;1686627;83;21072;-79
2022/07/07 09:41:13;;;;;;;2.02;1.82;;;;;;;20.74;67.52;99813.23;1707141;83;21020;-82
2022/07/07 09:43:52;;;;;;;6.17;1.10;;;;;;;20.77;66.37;99818.06;1680211;85;21227;-75
2022/07/07 09:46:21;;;;;;;1.60;1.50;;;;;;;20.73;66.45;99819.26;1693023;84;21043;-78
2022/07/07 09:48:57;;;;;;;1.67;1.25;;;;;;;20.76;66.61;99821.38;1693872;83;20959;-77
2022/07/07 09:51:29;;;;;;;1.25;1.22;;;;;;;20.81;67.21;99827.27;1693893;83;21191;-74
2022/07/07 09:54:00;;;;;;;1.22;1.15;;;;;;;20.88;66.87;99828.42;1710919;83;21028;-78
2022/07/07 09:56:34;;;;;;;1.60;1.50;;;;;;;20.93;66.43;99830.77;1708534;83;21336;-77
2022/07/07 09:59:03;;;;;;;1.00;1.00;;;;;;;20.95;66.01;99829.91;1712792;82;20987;-77
2022/07/07 10:01:38;;;;;;;1.22;1.22;;;;;;;20.97;66.34;99830.38;1690841;83;21057;-79
2022/07/07 10:04:19;;;;;;;1.77;1.67;;;;;;;20.99;66.24;99828.16;1684674;83;21050;-81
2022/07/07 10:06:47;;;;;;;1.62;1.45;;;;;;;20.99;66.39;99829.52;1716110;82;21299;-78
2022/07/07 10:09:21;;;;;;;2.67;1.50;;;;;;;20.98;66.33;99819.70;1707462;83;21143;-79
2022/07/07 10:11:50;;;;;;;1.77;1.57;;;;;;;20.97;66.31;99828.45;1710666;83;21557;-78
2022/07/07 10:14:24;;;;;;;1.40;1.30;;;;;;;21.06;66.38;99818.92;1710478;83;21221;-77
2022/07/07 10:16:53;;;;;;;9.50;1.72;;;;;;;21.11;65.95;99815.48;1694857;83;21079;-77
2022/07/07 10:19:21;;;;;;;1.57;1.47;;;;;;;21.25;65.31;99810.73;1694102;83;21052;-76
2022/07/07 10:21:50;;;;;;;2.37;1.27;;;;;;;21.39;64.72;99809.23;1687597;84;21521;-76
2022/07/07 10:24:20;;;;;;;1.00;1.00;;;;;;;21.51;64.84;99817.65;1711885;83;21108;-75
2022/07/07 10:26:52;;;;;;;1.40;1.30;;;;;;;21.56;63.88;99812.02;1704987;84;21517;-74
2022/07/07 10:29:39;;;;;;;1.47;1.37;;;;;;;21.60;64.58;99808.89;1680155;85;21655;-77
2022/07/07 10:32:14;;;;;;;2.92;1.92;;;;;;;21.75;63.64;99795.30;1689429;83;21115;-76
2022/07/07 10:34:51;;;;;;;1.75;1.40;;;;;;;21.90;63.01;99814.55;1654374;85;39170;-77
2022/07/07 10:37:18;;;;;;;1.67;1.40;;;;;;;22.03;62.41;99804.84;1688020;84;21871;-78
2022/07/07 10:39:48;;;;;;;1.07;1.07;;;;;;;22.17;61.78;99815.62;1702214;83;20945;-79
2022/07/07 10:42:39;;;;;;;4.87;1.35;;;;;;;22.19;60.80;99809.27;1673005;84;21087;-76
2022/07/07 10:45:08;;;;;;;2.25;1.65;;;;;;;22.12;61.10;99811.11;1664128;84;21082;-75
2022/07/07 10:47:37;;;;;;;2.60;1.70;;;;;;;22.07;59.86;99820.05;1661950;85;21093;-72
2022/07/07 10:50:26;;;;;;;2.47;2.27;;;;;;;22.06;60.24;99803.40;1682299;84;21041;-75
2022/07/07 10:52:53;;;;;;;1.47;1.37;;;;;;;22.06;60.59;99806.14;1703759;82;20973;-74
2022/07/07 10:55:20;;;;;;;1.90;1.45;;;;;;;22.14;60.78;99816.28;1702472;83;21046;-77
2022/07/07 10:57:47;;;;;;;1.30;1.20;;;;;;;22.30;61.08;99822.85;1688129;84;21557;-74
2022/07/07 11:00:28;;;;;;;1.10;1.10;;;;;;;22.42;61.30;99821.64;1673013;85;21094;-76
2022/07/07 11:03:09;;;;;;;1.32;1.22;;;;;;;22.54;60.15;99823.14;1680892;85;21009;-76
2022/07/07 11:05:37;;;;;;;2.92;1.40;;;;;;;22.62;60.18;99832.50;1661434;85;20989;-75
2022/07/07 11:08:09;;;;;;;1.30;1.07;;;;;;;22.68;60.55;99827.09;1685243;84;21037;-75
2022/07/07 11:10:47;;;;;;;1.50;1.40;;;;;;;22.68;59.91;99824.91;1689334;85;21070;-77
2022/07/07 11:13:43;;;;;;;2.75;1.40;;;;;;;22.72;59.27;99828.63;1663968;85;21158;-76
2022/07/07 11:16:15;;;;;;;1.25;1.15;;;;;;;22.72;58.02;99828.63;1669834;83;20957;-74
2022/07/07 11:18:45;;;;;;;3.83;1.30;;;;;;;22.73;58.79;99821.45;1703603;84;21064;-74
2022/07/07 11:21:12;;;;;;;1.40;1.30;;;;;;;22.74;59.14;99825.78;1677970;84;20998;-75
2022/07/07 11:23:55;;;;;;;2.10;1.40;;;;;;;22.78;58.11;99839.08;1687153;85;21046;-74
2022/07/07 11:26:23;;;;;;;;;;;;;;;22.83;57.86;99827.93;1675063;85;21224;-72
2022/07/07 11:28:51;;;;;;;1.67;1.27;;;;;;;22.85;58.10;99828.98;1687015;84;20185;-73
2022/07/07 11:31:18;;;;;;;1.27;1.17;;;;;;;22.90;57.04;99825.50;1701969;83;21041;-72
2022/07/07 11:33:53;;;;;;;5.37;1.20;;;;;;;22.99;56.83;99819.41;1656246;84;21105;-74
2022/07/07 11:36:29;;;;;;;1.17;1.17;;;;;;;23.07;57.36;99820.50;1674862;83;21059;-75
2022/07/07 11:39:03;;;;;;;1.35;1.30;;;;;;;23.04;56.62;99826.09;1710569;82;21233;-73
2022/07/07 11:41:44;;;;;;;1.42;1.30;;;;;;;23.00;55.98;99819.66;1710412;83;21528;-74
2022/07/07 11:44:20;;;;;;;6.45;2.00;;;;;;;22.96;56.48;99822.83;1710430;83;21072;-74